sensor_id;sensor_type;location;lat;lon;timestamp;pressure;altitude;pressure_sealevel;temperature;humidity
33155;BME280;19511;42.682;23.332;2022-10-16T00:01:18;95838.28;;;7.57;100.00
33155;BME280;19511;42.682;23.332;2022-10-16T00:03:46;95819.28;;;7.44;100.00
33155;BME280;19511;42.682;23.332;2022-10-16T00:06:12;95778.25;;;7.05;100.00
33155;BME280;19511;42.682;23.332;2022-10-16T00:08:39;95848.81;;;7.47;100.00
33155;BME280;19511;42.682;23.332;2022-10-16T00:11:10;95836.56;;;7.45;100.00
33155;BME280;19511;42.682;23.332;2022-10-16T00:13:38;95842.03;;;7.41;100.00
33155;BME280;19511;42.682;23.332;2022-10-16T00:16:05;95771.34;;;6.88;100.00
33155;BME280;19511;42.682;23.332;2022-10-16T00:18:30;95844.66;;;7.30;100.00
33155;BME280;19511;42.682;23.332;2022-10-16T00:21:06;95842.69;;;7.31;100.00
33155;BME280;19511;42.682;23.332;2022-10-16T00:23:32;95862.44;;;7.37;100.00
33155;BME280;19511;42.682;23.332;2022-10-16T00:26:00;95854.53;;;7.35;100.00
33155;BME280;19511;42.682;23.332;2022-10-16T00:28:27;95845.03;;;7.29;100.00
33155;BME280;19511;42.682;23.332;2022-10-16T00:30:53;95785.47;;;6.86;100.00
33155;BME280;19511;42.682;23.332;2022-10-16T00:33:18;95866.19;;;7.25;100.00
33155;BME280;19511;42.682;23.332;2022-10-16T00:35:44;95862.66;;;7.24;100.00
33155;BME280;19511;42.682;23.332;2022-10-16T00:38:09;95864.59;;;7.24;100.00
33155;BME280;19511;42.682;23.332;2022-10-16T00:40:35;95871.28;;;7.23;100.00
33155;BME280;19511;42.682;23.332;2022-10-16T00:43:00;95867.72;;;7.22;100.00
33155;BME280;19511;42.682;23.332;2022-10-16T00:45:26;95795.09;;;6.73;100.00
33155;BME280;19511;42.682;23.332;2022-10-16T00:47:53;95859.00;;;7.16;100.00
33155;BME280;19511;42.682;23.332;2022-10-16T00:50:27;95784.41;;;6.68;100.00
33155;BME280;19511;42.682;23.332;2022-10-16T00:52:54;95865.28;;;7.17;100.00
33155;BME280;19511;42.682;23.332;2022-10-16T00:55:20;95863.22;;;7.10;100.00
33155;BME280;19511;42.682;23.332;2022-10-16T00:57:46;95854.19;;;7.10;100.00
33155;BME280;19511;42.682;23.332;2022-10-16T01:00:21;95844.16;;;6.98;100.00
33155;BME280;19511;42.682;23.332;2022-10-16T01:02:55;95850.09;;;7.00;100.00
33155;BME280;19511;42.682;23.332;2022-10-16T01:05:24;95870.63;;;7.06;100.00
33155;BME280;19511;42.682;23.332;2022-10-16T01:08:04;95864.69;;;7.04;100.00
33155;BME280;19511;42.682;23.332;2022-10-16T01:10:52;95862.69;;;7.01;100.00
33155;BME280;19511;42.682;23.332;2022-10-16T01:13:25;95877.97;;;6.98;100.00
33155;BME280;19511;42.682;23.332;2022-10-16T01:15:54;95875.56;;;6.93;100.00
33155;BME280;19511;42.682;23.332;2022-10-16T01:21:03;95858.03;;;6.78;100.00
33155;BME280;19511;42.682;23.332;2022-10-16T01:28:56;95861.19;;;6.80;100.00
33155;BME280;19511;42.682;23.332;2022-10-16T01:31:25;95831.09;;;6.64;100.00
33155;BME280;19511;42.682;23.332;2022-10-16T01:36:36;95862.69;;;7.01;100.00
33155;BME280;19511;42.682;23.332;2022-10-16T01:39:04;95783.44;;;6.57;100.00
33155;BME280;19511;42.682;23.332;2022-10-16T01:41:41;95779.34;;;6.47;100.00
33155;BME280;19511;42.682;23.332;2022-10-16T01:44:16;95841.94;;;6.80;100.00
33155;BME280;19511;42.682;23.332;2022-10-16T01:46:47;95861.00;;;6.93;100.00
33155;BME280;19511;42.682;23.332;2022-10-16T01:49:14;95866.88;;;6.91;100.00
33155;BME280;19511;42.682;23.332;2022-10-16T01:51:45;95858.44;;;6.80;100.00
33155;BME280;19511;42.682;23.332;2022-10-16T01:54:13;95868.81;;;6.91;100.00
33155;BME280;19511;42.682;23.332;2022-10-16T01:56:40;95875.31;;;7.06;100.00
33155;BME280;19511;42.682;23.332;2022-10-16T01:59:10;95879.59;;;7.03;100.00
33155;BME280;19511;42.682;23.332;2022-10-16T02:01:39;95810.38;;;6.47;100.00
33155;BME280;19511;42.682;23.332;2022-10-16T02:04:18;95883.47;;;6.75;100.00
33155;BME280;19511;42.682;23.332;2022-10-16T02:06:45;95870.66;;;6.60;100.00
33155;BME280;19511;42.682;23.332;2022-10-16T02:09:11;95883.97;;;6.58;100.00
33155;BME280;19511;42.682;23.332;2022-10-16T02:11:37;95887.91;;;6.57;100.00
33155;BME280;19511;42.682;23.332;2022-10-16T02:14:05;95821.47;;;6.08;100.00
33155;BME280;19511;42.682;23.332;2022-10-16T02:16:43;95886.63;;;6.50;100.00
33155;BME280;19511;42.682;23.332;2022-10-16T02:19:13;95830.06;;;6.07;100.00
33155;BME280;19511;42.682;23.332;2022-10-16T02:21:53;95904.50;;;6.41;100.00
33155;BME280;19511;42.682;23.332;2022-10-16T02:24:57;95901.25;;;6.35;100.00
33155;BME280;19511;42.682;23.332;2022-10-16T02:27:29;95907.16;;;6.37;100.00
33155;BME280;19511;42.682;23.332;2022-10-16T02:32:53;95895.09;;;6.22;100.00
33155;BME280;19511;42.682;23.332;2022-10-16T02:35:22;95892.63;;;6.13;100.00
33155;BME280;19511;42.682;23.332;2022-10-16T02:37:49;95888.81;;;6.21;100.00
33155;BME280;19511;42.682;23.332;2022-10-16T02:40:16;95889.50;;;6.15;100.00
33155;BME280;19511;42.682;23.332;2022-10-16T02:42:42;95834.50;;;5.72;100.00
33155;BME280;19511;42.682;23.332;2022-10-16T02:45:09;95894.41;;;6.05;100.00
33155;BME280;19511;42.682;23.332;2022-10-16T02:47:35;95828.84;;;5.65;100.00
33155;BME280;19511;42.682;23.332;2022-10-16T02:50:01;95895.69;;;6.12;100.00
33155;BME280;19511;42.682;23.332;2022-10-16T02:52:26;95913.47;;;6.18;100.00
33155;BME280;19511;42.682;23.332;2022-10-16T02:54:52;95913.41;;;6.14;100.00
33155;BME280;19511;42.682;23.332;2022-10-16T02:57:17;95830.88;;;5.48;100.00
33155;BME280;19511;42.682;23.332;2022-10-16T02:59:43;95908.41;;;6.00;100.00
33155;BME280;19511;42.682;23.332;2022-10-16T03:02:09;95829.56;;;5.42;100.00
33155;BME280;19511;42.682;23.332;2022-10-16T03:04:35;95920.22;;;6.01;100.00
33155;BME280;19511;42.682;23.332;2022-10-16T03:07:00;95921.06;;;6.05;100.00
33155;BME280;19511;42.682;23.332;2022-10-16T03:09:26;95834.78;;;5.47;100.00
33155;BME280;19511;42.682;23.332;2022-10-16T03:11:51;95924.59;;;6.05;100.00
33155;BME280;19511;42.682;23.332;2022-10-16T03:14:17;95929.59;;;6.00;100.00
33155;BME280;19511;42.682;23.332;2022-10-16T03:16:42;95931.47;;;5.96;100.00
33155;BME280;19511;42.682;23.332;2022-10-16T03:19:08;95931.75;;;5.91;100.00
33155;BME280;19511;42.682;23.332;2022-10-16T03:21:33;95924.13;;;5.84;100.00
33155;BME280;19511;42.682;23.332;2022-10-16T03:23:59;95930.53;;;5.88;100.00
33155;BME280;19511;42.682;23.332;2022-10-16T03:26:24;95847.03;;;5.34;100.00
33155;BME280;19511;42.682;23.332;2022-10-16T03:28:50;95935.50;;;5.82;100.00
33155;BME280;19511;42.682;23.332;2022-10-16T03:31:15;95939.66;;;5.76;100.00
33155;BME280;19511;42.682;23.332;2022-10-16T03:33:44;95934.47;;;5.71;100.00
33155;BME280;19511;42.682;23.332;2022-10-16T03:36:09;95938.03;;;5.71;100.00
33155;BME280;19511;42.682;23.332;2022-10-16T03:38:35;95943.94;;;5.73;100.00
33155;BME280;19511;42.682;23.332;2022-10-16T03:41:00;95892.63;;;5.38;100.00
33155;BME280;19511;42.682;23.332;2022-10-16T03:43:26;95840.22;;;5.08;100.00
33155;BME280;19511;42.682;23.332;2022-10-16T03:45:55;95934.31;;;5.64;100.00
33155;BME280;19511;42.682;23.332;2022-10-16T03:48:27;95923.69;;;5.62;100.00
33155;BME280;19511;42.682;23.332;2022-10-16T03:50:52;95937.13;;;5.67;100.00
33155;BME280;19511;42.682;23.332;2022-10-16T03:53:18;95933.22;;;5.68;100.00
33155;BME280;19511;42.682;23.332;2022-10-16T03:55:44;95927.66;;;5.65;100.00
33155;BME280;19511;42.682;23.332;2022-10-16T03:58:10;95917.88;;;5.64;100.00
33155;BME280;19511;42.682;23.332;2022-10-16T04:00:43;95847.34;;;5.13;100.00
33155;BME280;19511;42.682;23.332;2022-10-16T04:03:09;95857.25;;;5.17;100.00
33155;BME280;19511;42.682;23.332;2022-10-16T04:05:34;95872.00;;;5.29;100.00
33155;BME280;19511;42.682;23.332;2022-10-16T04:08:00;95930.69;;;5.60;100.00
33155;BME280;19511;42.682;23.332;2022-10-16T04:10:25;95932.28;;;5.61;100.00
33155;BME280;19511;42.682;23.332;2022-10-16T04:12:50;95890.94;;;5.34;100.00
33155;BME280;19511;42.682;23.332;2022-10-16T04:15:16;95923.84;;;5.50;100.00
33155;BME280;19511;42.682;23.332;2022-10-16T04:17:41;95941.53;;;5.52;100.00
33155;BME280;19511;42.682;23.332;2022-10-16T04:20:07;95926.41;;;5.43;100.00
33155;BME280;19511;42.682;23.332;2022-10-16T04:22:33;95933.63;;;5.51;100.00
33155;BME280;19511;42.682;23.332;2022-10-16T04:24:58;95940.63;;;5.48;100.00
33155;BME280;19511;42.682;23.332;2022-10-16T04:27:24;95872.22;;;5.04;100.00
33155;BME280;19511;42.682;23.332;2022-10-16T04:29:49;95849.34;;;4.96;100.00
33155;BME280;19511;42.682;23.332;2022-10-16T04:32:14;95946.84;;;5.45;100.00
33155;BME280;19511;42.682;23.332;2022-10-16T04:34:40;95944.38;;;5.40;100.00
33155;BME280;19511;42.682;23.332;2022-10-16T04:37:06;95946.31;;;5.39;100.00
33155;BME280;19511;42.682;23.332;2022-10-16T04:39:31;95945.81;;;5.34;100.00
33155;BME280;19511;42.682;23.332;2022-10-16T04:41:57;95933.06;;;5.26;100.00
33155;BME280;19511;42.682;23.332;2022-10-16T04:44:22;95837.91;;;4.58;100.00
33155;BME280;19511;42.682;23.332;2022-10-16T04:46:50;95952.00;;;5.31;100.00
33155;BME280;19511;42.682;23.332;2022-10-16T04:49:16;95959.00;;;5.28;100.00
33155;BME280;19511;42.682;23.332;2022-10-16T04:51:41;95967.28;;;5.32;100.00
33155;BME280;19511;42.682;23.332;2022-10-16T04:54:08;95966.88;;;5.30;100.00
33155;BME280;19511;42.682;23.332;2022-10-16T04:56:34;95956.31;;;5.32;100.00
33155;BME280;19511;42.682;23.332;2022-10-16T04:59:05;95984.38;;;5.41;100.00
33155;BME280;19511;42.682;23.332;2022-10-16T05:01:30;95975.78;;;5.43;100.00
33155;BME280;19511;42.682;23.332;2022-10-16T05:03:56;95975.69;;;5.39;100.00
33155;BME280;19511;42.682;23.332;2022-10-16T05:06:21;95920.88;;;5.07;100.00
33155;BME280;19511;42.682;23.332;2022-10-16T05:08:47;95979.78;;;5.45;100.00
33155;BME280;19511;42.682;23.332;2022-10-16T05:11:12;95889.94;;;4.90;100.00
33155;BME280;19511;42.682;23.332;2022-10-16T05:13:37;95984.25;;;5.53;100.00
33155;BME280;19511;42.682;23.332;2022-10-16T05:16:03;95966.75;;;5.42;100.00
33155;BME280;19511;42.682;23.332;2022-10-16T05:18:28;95899.66;;;5.04;100.00
33155;BME280;19511;42.682;23.332;2022-10-16T05:20:54;95984.97;;;5.66;100.00
33155;BME280;19511;42.682;23.332;2022-10-16T05:23:19;95913.16;;;5.13;100.00
33155;BME280;19511;42.682;23.332;2022-10-16T05:25:52;95934.03;;;5.33;100.00
33155;BME280;19511;42.682;23.332;2022-10-16T05:28:18;95986.47;;;5.64;100.00
33155;BME280;19511;42.682;23.332;2022-10-16T05:30:44;95997.59;;;5.71;100.00
33155;BME280;19511;42.682;23.332;2022-10-16T05:33:09;95981.84;;;5.68;100.00
33155;BME280;19511;42.682;23.332;2022-10-16T05:35:34;95996.91;;;5.94;100.00
33155;BME280;19511;42.682;23.332;2022-10-16T05:38:00;95993.41;;;5.93;100.00
33155;BME280;19511;42.682;23.332;2022-10-16T05:40:25;95994.78;;;6.03;100.00
33155;BME280;19511;42.682;23.332;2022-10-16T05:42:54;95995.31;;;6.09;100.00
33155;BME280;19511;42.682;23.332;2022-10-16T05:45:20;95984.25;;;6.25;100.00
33155;BME280;19511;42.682;23.332;2022-10-16T05:47:45;96003.94;;;6.46;100.00
33155;BME280;19511;42.682;23.332;2022-10-16T05:50:11;96004.88;;;6.54;100.00
33155;BME280;19511;42.682;23.332;2022-10-16T05:52:36;95996.41;;;6.63;100.00
33155;BME280;19511;42.682;23.332;2022-10-16T05:55:02;95935.69;;;6.29;100.00
33155;BME280;19511;42.682;23.332;2022-10-16T05:57:28;95993.75;;;6.70;100.00
33155;BME280;19511;42.682;23.332;2022-10-16T05:59:58;95998.66;;;6.80;100.00
33155;BME280;19511;42.682;23.332;2022-10-16T06:02:25;96014.69;;;6.98;100.00
33155;BME280;19511;42.682;23.332;2022-10-16T06:04:53;96025.53;;;7.10;100.00
33155;BME280;19511;42.682;23.332;2022-10-16T06:07:20;96028.75;;;7.16;100.00
33155;BME280;19511;42.682;23.332;2022-10-16T06:09:51;96027.06;;;7.31;100.00
33155;BME280;19511;42.682;23.332;2022-10-16T06:12:18;96005.00;;;7.04;100.00
33155;BME280;19511;42.682;23.332;2022-10-16T06:14:45;96014.78;;;7.25;100.00
33155;BME280;19511;42.682;23.332;2022-10-16T06:17:13;96024.81;;;7.37;100.00
33155;BME280;19511;42.682;23.332;2022-10-16T06:19:39;96027.72;;;7.47;100.00
33155;BME280;19511;42.682;23.332;2022-10-16T06:22:04;96020.47;;;7.35;100.00
33155;BME280;19511;42.682;23.332;2022-10-16T06:24:36;96035.50;;;7.65;100.00
33155;BME280;19511;42.682;23.332;2022-10-16T06:27:03;96032.34;;;7.66;100.00
33155;BME280;19511;42.682;23.332;2022-10-16T06:29:29;96039.03;;;7.65;100.00
33155;BME280;19511;42.682;23.332;2022-10-16T06:31:54;96040.75;;;7.74;100.00
33155;BME280;19511;42.682;23.332;2022-10-16T06:34:31;96040.16;;;7.88;100.00
33155;BME280;19511;42.682;23.332;2022-10-16T06:36:56;96038.25;;;7.92;100.00
33155;BME280;19511;42.682;23.332;2022-10-16T06:39:22;96036.59;;;8.14;100.00
33155;BME280;19511;42.682;23.332;2022-10-16T06:41:47;96033.47;;;8.15;100.00
33155;BME280;19511;42.682;23.332;2022-10-16T06:44:14;96030.72;;;8.15;100.00
33155;BME280;19511;42.682;23.332;2022-10-16T06:46:39;96054.66;;;8.38;100.00
33155;BME280;19511;42.682;23.332;2022-10-16T06:49:08;96051.97;;;8.45;100.00
33155;BME280;19511;42.682;23.332;2022-10-16T06:51:34;96055.19;;;8.47;100.00
33155;BME280;19511;42.682;23.332;2022-10-16T06:54:01;96053.16;;;8.44;100.00
33155;BME280;19511;42.682;23.332;2022-10-16T06:56:27;96057.34;;;8.61;100.00
33155;BME280;19511;42.682;23.332;2022-10-16T06:58:55;96065.69;;;8.69;100.00
33155;BME280;19511;42.682;23.332;2022-10-16T07:01:22;96070.41;;;8.68;100.00
33155;BME280;19511;42.682;23.332;2022-10-16T07:03:48;96068.91;;;8.74;100.00
33155;BME280;19511;42.682;23.332;2022-10-16T07:06:17;96063.63;;;8.96;100.00
33155;BME280;19511;42.682;23.332;2022-10-16T07:08:45;96052.59;;;8.96;100.00
33155;BME280;19511;42.682;23.332;2022-10-16T07:11:13;96055.78;;;8.98;100.00
33155;BME280;19511;42.682;23.332;2022-10-16T07:13:41;96034.44;;;8.95;100.00
33155;BME280;19511;42.682;23.332;2022-10-16T07:16:09;95946.38;;;8.41;100.00
33155;BME280;19511;42.682;23.332;2022-10-16T07:18:35;96059.59;;;9.24;100.00
33155;BME280;19511;42.682;23.332;2022-10-16T07:21:10;96068.97;;;9.57;100.00
33155;BME280;19511;42.682;23.332;2022-10-16T07:23:36;96061.91;;;9.59;100.00
33155;BME280;19511;42.682;23.332;2022-10-16T07:26:03;96065.13;;;9.65;100.00
33155;BME280;19511;42.682;23.332;2022-10-16T07:28:28;96061.59;;;9.72;100.00
33155;BME280;19511;42.682;23.332;2022-10-16T07:30:54;96065.22;;;9.79;100.00
33155;BME280;19511;42.682;23.332;2022-10-16T07:33:20;96067.19;;;9.83;100.00
33155;BME280;19511;42.682;23.332;2022-10-16T07:35:52;96067.34;;;9.97;100.00
33155;BME280;19511;42.682;23.332;2022-10-16T07:38:19;96054.78;;;10.07;100.00
33155;BME280;19511;42.682;23.332;2022-10-16T07:40:45;96067.50;;;10.22;100.00
33155;BME280;19511;42.682;23.332;2022-10-16T07:43:10;96052.13;;;10.25;100.00
33155;BME280;19511;42.682;23.332;2022-10-16T07:45:36;95984.44;;;10.01;100.00
33155;BME280;19511;42.682;23.332;2022-10-16T07:48:01;96051.44;;;10.46;100.00
33155;BME280;19511;42.682;23.332;2022-10-16T07:50:27;96056.25;;;10.60;100.00
33155;BME280;19511;42.682;23.332;2022-10-16T07:52:52;96006.38;;;10.38;100.00
33155;BME280;19511;42.682;23.332;2022-10-16T07:55:18;96061.13;;;10.85;100.00
33155;BME280;19511;42.682;23.332;2022-10-16T07:57:43;96058.00;;;10.93;100.00
33155;BME280;19511;42.682;23.332;2022-10-16T08:00:09;96071.47;;;11.09;100.00
33155;BME280;19511;42.682;23.332;2022-10-16T08:02:41;96069.16;;;11.22;100.00
33155;BME280;19511;42.682;23.332;2022-10-16T08:05:07;96058.09;;;11.22;100.00
33155;BME280;19511;42.682;23.332;2022-10-16T08:07:33;96058.88;;;11.34;100.00
33155;BME280;19511;42.682;23.332;2022-10-16T08:09:58;96058.50;;;11.42;100.00
33155;BME280;19511;42.682;23.332;2022-10-16T08:12:27;96050.22;;;11.57;100.00
33155;BME280;19511;42.682;23.332;2022-10-16T08:14:52;96003.47;;;11.37;100.00
33155;BME280;19511;42.682;23.332;2022-10-16T08:17:18;95995.97;;;11.49;100.00
33155;BME280;19511;42.682;23.332;2022-10-16T08:19:47;95988.84;;;11.55;100.00
33155;BME280;19511;42.682;23.332;2022-10-16T08:22:14;96020.91;;;11.88;100.00
33155;BME280;19511;42.682;23.332;2022-10-16T08:24:40;96060.53;;;12.21;100.00
33155;BME280;19511;42.682;23.332;2022-10-16T08:27:06;96063.66;;;12.23;100.00
33155;BME280;19511;42.682;23.332;2022-10-16T08:29:32;96011.00;;;12.13;100.00
33155;BME280;19511;42.682;23.332;2022-10-16T08:31:57;96058.88;;;12.46;100.00
33155;BME280;19511;42.682;23.332;2022-10-16T08:34:22;96046.19;;;12.45;100.00
33155;BME280;19511;42.682;23.332;2022-10-16T08:36:48;96035.81;;;12.67;100.00
33155;BME280;19511;42.682;23.332;2022-10-16T08:39:13;95978.41;;;12.46;100.00
33155;BME280;19511;42.682;23.332;2022-10-16T08:49:42;96054.56;;;13.26;100.00
33155;BME280;19511;42.682;23.332;2022-10-16T08:52:12;95986.53;;;12.89;100.00
33155;BME280;19511;42.682;23.332;2022-10-16T08:54:43;96058.44;;;13.47;100.00
33155;BME280;19511;42.682;23.332;2022-10-16T08:57:25;96050.81;;;13.58;100.00
33155;BME280;19511;42.682;23.332;2022-10-16T08:59:52;95991.06;;;13.28;100.00
33155;BME280;19511;42.682;23.332;2022-10-16T09:02:37;96056.59;;;13.82;100.00
33155;BME280;19511;42.682;23.332;2022-10-16T09:15:48;96039.34;;;14.01;100.00
33155;BME280;19511;42.682;23.332;2022-10-16T09:21:26;96049.81;;;14.28;100.00
33155;BME280;19511;42.682;23.332;2022-10-16T09:24:13;96053.78;;;14.31;100.00
33155;BME280;19511;42.682;23.332;2022-10-16T09:26:39;95987.38;;;13.91;100.00
33155;BME280;19511;42.682;23.332;2022-10-16T09:29:04;95980.09;;;14.08;100.00
33155;BME280;19511;42.682;23.332;2022-10-16T09:31:30;96045.59;;;14.54;100.00
33155;BME280;19511;42.682;23.332;2022-10-16T09:33:59;96044.34;;;14.59;100.00
33155;BME280;19511;42.682;23.332;2022-10-16T09:36:27;95987.19;;;14.13;100.00
33155;BME280;19511;42.682;23.332;2022-10-16T09:39:08;96042.31;;;14.67;100.00
33155;BME280;19511;42.682;23.332;2022-10-16T09:41:38;95978.06;;;14.47;100.00
33155;BME280;19511;42.682;23.332;2022-10-16T09:44:35;96039.03;;;14.76;100.00
33155;BME280;19511;42.682;23.332;2022-10-16T09:47:04;95971.84;;;14.35;100.00
33155;BME280;19511;42.682;23.332;2022-10-16T09:49:31;96021.31;;;14.93;100.00
33155;BME280;19511;42.682;23.332;2022-10-16T09:52:11;96022.25;;;15.10;100.00
33155;BME280;19511;42.682;23.332;2022-10-16T09:54:37;96023.25;;;14.96;100.00
33155;BME280;19511;42.682;23.332;2022-10-16T09:57:13;96014.97;;;14.89;100.00
33155;BME280;19511;42.682;23.332;2022-10-16T09:59:47;96029.94;;;15.02;100.00
33155;BME280;19511;42.682;23.332;2022-10-16T10:02:15;96006.06;;;15.01;100.00
33155;BME280;19511;42.682;23.332;2022-10-16T10:04:54;96022.22;;;15.14;100.00
33155;BME280;19511;42.682;23.332;2022-10-16T10:07:31;95982.22;;;14.97;100.00
33155;BME280;19511;42.682;23.332;2022-10-16T10:10:03;96026.91;;;15.21;100.00
33155;BME280;19511;42.682;23.332;2022-10-16T10:12:31;96005.75;;;15.23;100.00
33155;BME280;19511;42.682;23.332;2022-10-16T10:15:03;95939.38;;;14.91;100.00
33155;BME280;19511;42.682;23.332;2022-10-16T10:17:44;96018.91;;;15.50;100.00
33155;BME280;19511;42.682;23.332;2022-10-16T10:20:16;96014.47;;;15.52;100.00
33155;BME280;19511;42.682;23.332;2022-10-16T10:22:48;95956.50;;;15.16;98.81
33155;BME280;19511;42.682;23.332;2022-10-16T10:28:18;96004.63;;;15.48;100.00
33155;BME280;19511;42.682;23.332;2022-10-16T10:31:17;96005.97;;;15.63;100.00
33155;BME280;19511;42.682;23.332;2022-10-16T10:33:54;95999.47;;;15.70;100.00
33155;BME280;19511;42.682;23.332;2022-10-16T10:36:40;95997.09;;;15.68;100.00
33155;BME280;19511;42.682;23.332;2022-10-16T10:39:14;95916.47;;;15.30;100.00
33155;BME280;19511;42.682;23.332;2022-10-16T10:47:56;95988.91;;;16.09;100.00
33155;BME280;19511;42.682;23.332;2022-10-16T10:53:29;95989.94;;;16.15;100.00
33155;BME280;19511;42.682;23.332;2022-10-16T10:59:01;95983.16;;;16.16;94.76
33155;BME280;19511;42.682;23.332;2022-10-16T11:04:17;95973.31;;;16.31;90.71
33155;BME280;19511;42.682;23.332;2022-10-16T11:06:50;95970.19;;;16.49;90.28
33155;BME280;19511;42.682;23.332;2022-10-16T11:09:26;95950.84;;;16.59;93.27
33155;BME280;19511;42.682;23.332;2022-10-16T11:12:01;95883.91;;;16.15;95.13
33155;BME280;19511;42.682;23.332;2022-10-16T11:14:40;95953.91;;;16.64;95.70
33155;BME280;19511;42.682;23.332;2022-10-16T11:17:22;95963.94;;;16.62;93.52
33155;BME280;19511;42.682;23.332;2022-10-16T11:19:54;95958.34;;;16.62;92.77
33155;BME280;19511;42.682;23.332;2022-10-16T11:30:24;95956.75;;;16.81;95.07
33155;BME280;19511;42.682;23.332;2022-10-16T11:33:00;95953.38;;;16.90;94.06
33155;BME280;19511;42.682;23.332;2022-10-16T11:35:41;95942.19;;;16.90;93.13
33155;BME280;19511;42.682;23.332;2022-10-16T11:38:30;95949.31;;;16.94;91.55
33155;BME280;19511;42.682;23.332;2022-10-16T11:41:08;95955.69;;;16.95;92.54
33155;BME280;19511;42.682;23.332;2022-10-16T11:43:43;95935.53;;;17.04;90.22
33155;BME280;19511;42.682;23.332;2022-10-16T11:46:20;95953.28;;;17.13;90.17
33155;BME280;19511;42.682;23.332;2022-10-16T11:51:20;95960.00;;;17.16;88.61
33155;BME280;19511;42.682;23.332;2022-10-16T11:53:54;95956.84;;;17.14;90.24
33155;BME280;19511;42.682;23.332;2022-10-16T11:56:22;95951.00;;;17.08;92.17
33155;BME280;19511;42.682;23.332;2022-10-16T12:01:43;95884.63;;;16.76;91.87
33155;BME280;19511;42.682;23.332;2022-10-16T12:04:31;95939.16;;;17.21;92.05
33155;BME280;19511;42.682;23.332;2022-10-16T12:07:10;95948.31;;;17.21;93.40
33155;BME280;19511;42.682;23.332;2022-10-16T12:09:41;95926.41;;;17.20;88.99
33155;BME280;19511;42.682;23.332;2022-10-16T12:15:22;95948.63;;;17.43;90.45
33155;BME280;19511;42.682;23.332;2022-10-16T12:17:49;95950.59;;;17.43;89.10
33155;BME280;19511;42.682;23.332;2022-10-16T12:20:19;95948.25;;;17.41;89.12
33155;BME280;19511;42.682;23.332;2022-10-16T12:22:53;95877.03;;;16.96;87.96
33155;BME280;19511;42.682;23.332;2022-10-16T12:25:33;95942.91;;;17.30;89.72
33155;BME280;19511;42.682;23.332;2022-10-16T12:28:19;95944.75;;;17.37;91.56
33155;BME280;19511;42.682;23.332;2022-10-16T12:33:39;95938.78;;;17.19;92.52
33155;BME280;19511;42.682;23.332;2022-10-16T12:36:13;95888.00;;;17.04;92.34
33155;BME280;19511;42.682;23.332;2022-10-16T12:38:50;95943.63;;;17.35;93.73
33155;BME280;19511;42.682;23.332;2022-10-16T12:43:52;95943.97;;;17.53;88.43
33155;BME280;19511;42.682;23.332;2022-10-16T12:48:44;95867.06;;;17.12;89.53
33155;BME280;19511;42.682;23.332;2022-10-16T12:51:19;95947.81;;;17.59;91.38
33155;BME280;19511;42.682;23.332;2022-10-16T12:54:17;95947.66;;;17.67;90.61
33155;BME280;19511;42.682;23.332;2022-10-16T13:13:48;95955.16;;;17.70;85.01
33155;BME280;19511;42.682;23.332;2022-10-16T13:16:40;95948.19;;;17.61;82.78
33155;BME280;19511;42.682;23.332;2022-10-16T13:19:28;95935.94;;;17.55;85.41
33155;BME280;19511;42.682;23.332;2022-10-16T13:22:21;95927.72;;;17.48;85.18
33155;BME280;19511;42.682;23.332;2022-10-16T13:25:05;95948.78;;;17.69;85.58
33155;BME280;19511;42.682;23.332;2022-10-16T13:27:55;95949.13;;;17.71;81.88
33155;BME280;19511;42.682;23.332;2022-10-16T13:30:26;95839.25;;;16.88;86.34
33155;BME280;19511;42.682;23.332;2022-10-16T13:33:20;95938.38;;;17.70;84.79
33155;BME280;19511;42.682;23.332;2022-10-16T13:35:58;95944.50;;;17.65;88.02
33155;BME280;19511;42.682;23.332;2022-10-16T13:38:31;95950.59;;;17.59;88.87
33155;BME280;19511;42.682;23.332;2022-10-16T13:41:03;95955.16;;;17.70;86.41
33155;BME280;19511;42.682;23.332;2022-10-16T13:43:34;95953.41;;;17.59;84.15
33155;BME280;19511;42.682;23.332;2022-10-16T13:46:06;95952.72;;;17.72;82.82
33155;BME280;19511;42.682;23.332;2022-10-16T13:48:33;95946.50;;;17.48;85.20
33155;BME280;19511;42.682;23.332;2022-10-16T13:51:00;95955.88;;;17.57;85.69
33155;BME280;19511;42.682;23.332;2022-10-16T13:53:27;95954.09;;;17.63;82.91
33155;BME280;19511;42.682;23.332;2022-10-16T13:55:52;95879.31;;;17.18;77.63
33155;BME280;19511;42.682;23.332;2022-10-16T13:58:17;95951.81;;;17.58;75.50
33155;BME280;19511;42.682;23.332;2022-10-16T14:01:01;95960.06;;;17.49;78.31
33155;BME280;19511;42.682;23.332;2022-10-16T14:03:30;95949.56;;;17.37;79.21
33155;BME280;19511;42.682;23.332;2022-10-16T14:06:03;95967.22;;;17.50;75.90
33155;BME280;19511;42.682;23.332;2022-10-16T14:08:31;95952.88;;;17.32;79.46
33155;BME280;19511;42.682;23.332;2022-10-16T14:10:59;95900.25;;;16.73;77.20
33155;BME280;19511;42.682;23.332;2022-10-16T14:13:43;95976.63;;;17.23;76.10
33155;BME280;19511;42.682;23.332;2022-10-16T14:16:19;95894.25;;;16.75;74.49
33155;BME280;19511;42.682;23.332;2022-10-16T14:19:02;95963.50;;;17.20;74.59
33155;BME280;19511;42.682;23.332;2022-10-16T14:21:29;95966.91;;;17.11;73.69
33155;BME280;19511;42.682;23.332;2022-10-16T14:23:55;95960.69;;;17.04;74.06
33155;BME280;19511;42.682;23.332;2022-10-16T14:26:24;95977.44;;;17.04;75.05
33155;BME280;19511;42.682;23.332;2022-10-16T14:29:19;95909.53;;;16.50;76.80
33155;BME280;19511;42.682;23.332;2022-10-16T14:31:59;95898.72;;;16.32;80.84
33155;BME280;19511;42.682;23.332;2022-10-16T14:34:31;95969.75;;;16.71;80.75
33155;BME280;19511;42.682;23.332;2022-10-16T14:37:23;95982.91;;;16.71;79.72